Terminal Aerodrome Forecast
Issued by NWS

Home | Current Version | Previous Version | Text Only | Print | Product List | Glossary On
Versions: 1 2 3 4 5 6 7 8 9 10 11 12 13
000
FTUS46 KLOX 281700
TAFSBA
TAF
KSBA 281734Z 2818/2918 VRB03KT P6SM SCT200
     FM282100 22006KT P6SM SCT200
     FM282300 26007KT P6SM SCT200
     FM290200 VRB03KT P6SM SKC=

USA.gov is the U.S. government's official web portal to all federal, state and local government web resources and services.